Time;durP1;ratioP1;P1;durP2;ratioP2;P2;SDS_P1;SDS_P2;PMS_P1;PMS_P2;Temp;Humidity;BMP_temperature;BMP_pressure;BME280_temperature;BME280_humidity;BME280_pressure;Samples;Min_cycle;Max_cycle;Signal;HPM_P1;HPM_P2
2022/05/21 00:06:07;;;;;;;0.20;0.00;;;19.30;99.90;;;;;;26493680;22;20169;-73
2022/05/21 00:16:11;;;;;;;0.20;0.10;;;19.30;99.90;;;;;;26532586;22;20253;-74
2022/05/21 00:26:17;;;;;;;0.20;0.00;;;19.40;99.90;;;;;;26534100;22;20180;-73
2022/05/21 00:36:21;;;;;;;0.20;0.10;;;19.40;99.90;;;;;;26559172;22;20196;-74
2022/05/21 00:46:29;;;;;;;0.20;0.00;;;19.30;99.90;;;;;;26561808;22;20180;-73
2022/05/21 00:56:39;;;;;;;0.20;0.00;;;19.20;99.90;;;;;;26559334;22;20201;-73
2022/05/21 01:06:44;;;;;;;0.20;0.10;;;18.90;99.90;;;;;;26531996;22;20149;-74
2022/05/21 01:16:49;;;;;;;0.20;0.00;;;18.60;99.90;;;;;;26534272;22;20212;-73
2022/05/21 01:26:56;;;;;;;0.20;0.07;;;18.70;99.90;;;;;;26533377;22;20181;-73
2022/05/21 01:37:00;;;;;;;0.20;0.00;;;18.70;99.90;;;;;;26530869;22;20181;-74
2022/05/21 01:47:07;;;;;;;0.20;0.00;;;18.70;99.90;;;;;;26565686;22;20165;-73
2022/05/21 01:57:11;;;;;;;0.20;0.00;;;18.60;99.90;;;;;;26567777;22;20187;-73
2022/05/21 02:07:17;;;;;;;0.20;0.00;;;18.30;99.90;;;;;;26568898;22;20168;-73
2022/05/21 02:17:21;;;;;;;0.20;0.00;;;18.20;99.90;;;;;;26567327;22;20189;-72
2022/05/21 02:27:26;;;;;;;0.20;0.00;;;18.20;99.90;;;;;;26539746;22;20166;-72
2022/05/21 02:47:53;;;;;;;0.20;0.10;;;17.90;99.90;;;;;;26567093;22;20156;-74
2022/05/21 02:57:57;;;;;;;0.20;0.10;;;17.80;99.90;;;;;;26537005;22;20192;-75
2022/05/21 03:10:20;;;;;;;0.20;0.00;;;17.80;99.90;;;;;;26536094;22;20164;-74
2022/05/21 03:18:29;;;;;;;0.20;0.00;;;17.80;99.90;;;;;;26540225;22;20257;-76
2022/05/21 03:28:35;;;;;;;0.20;0.10;;;17.80;99.90;;;;;;26564662;22;20157;-73
2022/05/21 03:38:39;;;;;;;0.20;0.10;;;18.00;99.90;;;;;;26565528;22;20207;-73
2022/05/21 03:48:44;;;;;;;0.20;0.20;;;17.80;99.90;;;;;;26534632;22;20158;-74
2022/05/21 03:58:48;;;;;;;0.20;0.10;;;17.60;99.90;;;;;;26563090;22;20196;-73
2022/05/21 04:08:53;;;;;;;0.20;0.10;;;17.60;99.90;;;;;;26561505;22;20180;-73
2022/05/21 04:18:57;;;;;;;0.20;0.10;;;17.70;99.90;;;;;;26533473;22;20204;-73
2022/05/21 04:29:02;;;;;;;0.20;0.00;;;17.70;99.90;;;;;;26555094;22;20162;-74
2022/05/21 04:39:06;;;;;;;0.20;0.10;;;17.60;99.90;;;;;;26529547;22;20192;-73
2022/05/21 04:49:12;;;;;;;0.20;0.00;;;17.40;99.90;;;;;;26526220;22;20268;-72
2022/05/21 04:59:16;;;;;;;0.20;0.10;;;17.50;99.90;;;;;;26556203;22;20193;-72
2022/05/21 05:09:22;;;;;;;0.20;0.00;;;17.60;99.90;;;;;;26523634;22;20189;-73
2022/05/21 05:19:29;;;;;;;0.20;0.10;;;17.50;99.90;;;;;;26467693;22;2016684;-73
2022/05/21 05:29:35;;;;;;;0.20;0.10;;;17.70;99.90;;;;;;26562334;22;20157;-72
2022/05/21 05:39:39;;;;;;;0.20;0.10;;;18.10;99.90;;;;;;26531526;22;20181;-72
2022/05/21 05:49:44;;;;;;;0.20;0.10;;;18.50;99.90;;;;;;26531381;22;20165;-72
2022/05/21 05:59:51;;;;;;;0.20;0.00;;;19.20;99.90;;;;;;26530308;22;20181;-73
2022/05/21 06:10:02;;;;;;;0.20;0.00;;;19.90;99.90;;;;;;26558894;22;20157;-71
2022/05/21 06:20:14;;;;;;;0.20;0.10;;;20.40;99.90;;;;;;26531597;22;20197;-74
2022/05/21 06:30:22;;;;;;;0.20;0.00;;;21.10;99.90;;;;;;26532639;22;20253;-73
2022/05/21 06:40:26;;;;;;;0.20;0.00;;;21.60;99.90;;;;;;26564511;22;20185;-71
2022/05/21 06:50:31;;;;;;;0.20;0.00;;;21.60;99.90;;;;;;26565152;22;20172;-72
2022/05/21 07:00:35;;;;;;;0.20;0.00;;;21.70;99.90;;;;;;26560259;22;20227;-72
2022/05/21 07:10:41;;;;;;;0.20;0.00;;;21.80;99.90;;;;;;26561263;22;20176;-73
2022/05/21 07:20:45;;;;;;;0.20;0.00;;;21.80;99.90;;;;;;26562018;22;20212;-73
2022/05/21 07:30:51;;;;;;;0.20;0.00;;;21.70;99.90;;;;;;26562147;22;20161;-71
2022/05/21 07:40:55;;;;;;;0.20;0.00;;;21.90;99.90;;;;;;26558941;22;20182;-72
2022/05/21 07:51:03;;;;;;;0.20;0.00;;;21.90;99.90;;;;;;26559503;22;20529;-72
2022/05/21 08:01:08;;;;;;;0.20;0.00;;;22.30;99.90;;;;;;26556715;22;20226;-75
2022/05/21 09:25:27;;;;;;;0.20;0.00;;;23.30;99.90;;;;;;26331490;22;20206;-74
2022/05/21 09:35:33;;;;;;;0.20;0.00;;;23.10;99.90;;;;;;26290872;22;20186;-72
2022/05/21 09:45:40;;;;;;;0.20;0.10;;;23.20;99.90;;;;;;26288053;22;20162;-70
2022/05/21 09:55:43;;;;;;;0.20;0.10;;;23.60;99.90;;;;;;26287876;22;20183;-75
2022/05/21 10:05:53;;;;;;;0.55;0.55;;;23.80;99.90;;;;;;26264982;22;20167;-72
2022/05/21 10:16:00;;;;;;;0.20;0.00;;;24.10;99.90;;;;;;26299345;22;20187;-72
2022/05/21 10:26:22;;;;;;;0.20;0.00;;;24.10;99.90;;;;;;26268323;22;20187;-70
2022/05/21 10:36:36;;;;;;;0.20;0.10;;;24.60;99.90;;;;;;26269429;22;20179;-72
2022/05/21 10:46:51;;;;;;;0.20;0.00;;;25.10;99.90;;;;;;26243257;22;20182;-72
2022/05/21 10:57:05;;;;;;;0.20;0.00;;;25.40;99.90;;;;;;26238161;22;20206;-70
2022/05/21 11:07:37;;;;;;;0.52;0.52;;;26.30;99.90;;;;;;26265572;22;20163;-79
2022/05/21 11:17:46;;;;;;;0.20;0.00;;;26.10;99.90;;;;;;26295540;22;20321;-72
2022/05/21 11:27:58;;;;;;;0.20;0.00;;;26.30;99.90;;;;;;26411435;22;20515;-71
2022/05/21 11:38:02;;;;;;;0.20;0.00;;;27.20;99.90;;;;;;26389105;22;20211;-73
2022/05/21 11:48:22;;;;;;;0.20;0.00;;;28.60;99.90;;;;;;26424677;22;20173;-66
2022/05/21 11:58:28;;;;;;;0.45;0.45;;;28.50;99.90;;;;;;26395609;22;20185;-68
2022/05/21 12:08:43;;;;;;;0.20;0.00;;;28.50;99.90;;;;;;26393873;22;20165;-73
2022/05/21 12:18:48;;;;;;;0.20;0.00;;;29.30;99.90;;;;;;26391094;22;20326;-74
2022/05/21 12:29:07;;;;;;;0.20;0.00;;;30.70;99.90;;;;;;26419302;22;20196;-70
2022/05/21 12:39:14;;;;;;;0.20;0.00;;;31.20;99.90;;;;;;26395132;22;20192;-73
2022/05/21 12:49:21;;;;;;;0.20;0.00;;;31.90;99.90;;;;;;26426266;22;20177;-76
2022/05/21 12:59:29;;;;;;;0.20;0.00;;;32.10;99.90;;;;;;26425434;22;20300;-72
2022/05/21 13:09:37;;;;;;;0.20;0.00;;;31.60;99.90;;;;;;26395751;22;20166;-70
2022/05/21 13:20:03;;;;;;;0.20;0.00;;;31.90;99.90;;;;;;26422978;22;20201;-75
2022/05/21 13:30:12;;;;;;;0.20;0.00;;;32.20;99.90;;;;;;26422276;22;20146;-72
2022/05/21 13:40:20;;;;;;;0.20;0.00;;;31.90;99.90;;;;;;26401518;22;20182;-71
2022/05/21 13:50:29;;;;;;;0.20;0.00;;;32.40;99.90;;;;;;26431736;22;20165;-71
2022/05/21 14:00:37;;;;;;;0.20;0.00;;;32.20;99.90;;;;;;26429368;22;20186;-72
2022/05/21 14:10:46;;;;;;;0.20;0.00;;;32.20;99.90;;;;;;26400697;22;20170;-73
2022/05/21 14:20:59;;;;;;;0.20;0.00;;;32.70;99.90;;;;;;26394483;22;20201;-74
2022/05/21 14:31:22;;;;;;;0.20;0.00;;;33.50;99.90;;;;;;26400071;22;20162;-72
2022/05/21 14:41:30;;;;;;;0.20;0.00;;;33.90;99.90;;;;;;26425721;22;20182;-73
2022/05/21 15:02:01;;;;;;;0.20;0.00;;;32.10;99.90;;;;;;26423174;22;20178;-72
2022/05/21 15:12:07;;;;;;;0.20;0.00;;;32.50;99.90;;;;;;26422185;22;20162;-73
2022/05/21 15:22:14;;;;;;;0.20;0.00;;;31.70;99.90;;;;;;26426706;22;20247;-73
2022/05/21 15:32:19;;;;;;;0.20;0.00;;;31.90;99.90;;;;;;26427189;22;20257;-72
2022/05/21 15:42:24;;;;;;;0.20;0.00;;;30.60;99.90;;;;;;26425562;22;20232;-73
2022/05/21 15:52:32;;;;;;;0.20;0.00;;;30.40;99.90;;;;;;26425414;22;20178;-74
2022/05/21 16:02:37;;;;;;;0.20;0.00;;;29.70;99.90;;;;;;26422367;22;20174;-70
2022/05/21 16:12:43;;;;;;;0.20;0.00;;;29.60;99.90;;;;;;26421791;22;20173;-73
2022/05/21 16:22:47;;;;;;;0.20;0.00;;;28.90;99.90;;;;;;26421314;22;20210;-73
2022/05/21 16:32:52;;;;;;;0.20;0.00;;;28.40;99.90;;;;;;26418254;22;20173;-73
2022/05/21 16:42:56;;;;;;;0.20;0.00;;;28.40;99.90;;;;;;26420483;22;20189;-74
2022/05/21 16:53:01;;;;;;;0.20;0.00;;;28.40;99.90;;;;;;26419243;22;20183;-74
2022/05/21 17:03:06;;;;;;;0.20;0.00;;;29.10;99.90;;;;;;26394296;22;20189;-74
2022/05/21 17:13:11;;;;;;;0.20;0.00;;;29.70;99.90;;;;;;26391208;22;20165;-76
2022/05/21 17:23:16;;;;;;;0.20;0.00;;;28.40;99.90;;;;;;26415260;22;20190;-77
2022/05/21 17:33:21;;;;;;;0.20;0.00;;;28.80;99.90;;;;;;26394112;22;20166;-72
2022/05/21 17:43:25;;;;;;;0.20;0.00;;;28.80;99.90;;;;;;26392795;22;20178;-73
2022/05/21 17:53:31;;;;;;;0.20;0.05;;;29.30;99.90;;;;;;26393274;22;20245;-70
2022/05/21 18:03:35;;;;;;;0.20;0.00;;;28.00;99.90;;;;;;26421521;22;20182;-73
2022/05/21 18:13:41;;;;;;;0.20;0.00;;;27.50;99.90;;;;;;26421116;22;20177;-74
2022/05/21 18:23:45;;;;;;;0.20;0.00;;;27.70;99.90;;;;;;26424175;22;20193;-74
2022/05/21 18:33:53;;;;;;;0.20;0.00;;;27.80;99.90;;;;;;26430337;22;20169;-74
2022/05/21 18:44:01;;;;;;;0.20;0.00;;;27.00;99.90;;;;;;26401291;22;20193;-72
2022/05/21 18:54:07;;;;;;;0.20;0.00;;;26.10;99.90;;;;;;26399120;22;20182;-73
2022/05/21 19:04:12;;;;;;;0.20;0.00;;;25.80;99.90;;;;;;26388708;22;20595;-71
2022/05/21 19:14:19;;;;;;;0.20;0.00;;;25.50;99.90;;;;;;26393322;22;20162;-72
2022/05/21 19:24:25;;;;;;;0.20;0.10;;;25.30;99.90;;;;;;26395274;22;20316;-71
2022/05/21 19:34:30;;;;;;;0.20;0.00;;;25.10;99.90;;;;;;26420212;22;20170;-72
2022/05/21 19:44:34;;;;;;;0.20;0.10;;;24.50;99.90;;;;;;26391523;22;20182;-69
2022/05/21 19:54:43;;;;;;;0.20;0.00;;;24.40;99.90;;;;;;26421374;22;20182;-73
2022/05/21 20:04:48;;;;;;;0.20;0.00;;;24.10;99.90;;;;;;26416992;22;20174;-72
2022/05/21 20:14:53;;;;;;;0.20;0.00;;;23.20;99.90;;;;;;26417483;22;20170;-71
2022/05/21 20:24:57;;;;;;;0.20;0.00;;;23.00;99.90;;;;;;26415107;22;20226;-73
2022/05/21 20:35:03;;;;;;;0.20;0.00;;;22.90;99.90;;;;;;26424252;22;20523;-71
2022/05/21 20:45:08;;;;;;;0.20;0.00;;;22.80;99.90;;;;;;26421123;22;20178;-71
2022/05/21 20:55:13;;;;;;;0.20;0.00;;;22.40;99.90;;;;;;26423491;22;20197;-71
2022/05/21 21:05:17;;;;;;;0.20;0.00;;;22.00;99.90;;;;;;26394841;22;20197;-72
2022/05/21 21:15:26;;;;;;;0.20;0.00;;;21.80;99.90;;;;;;26396009;22;20173;-67
2022/05/21 21:25:30;;;;;;;0.20;0.00;;;21.80;99.90;;;;;;26422165;22;20197;-71
2022/05/21 21:35:35;;;;;;;0.20;0.00;;;21.80;99.90;;;;;;26397112;22;20177;-71
2022/05/21 21:45:39;;;;;;;0.20;0.00;;;21.70;99.90;;;;;;26399845;22;20186;-72
2022/05/21 21:55:44;;;;;;;0.20;0.00;;;21.50;99.90;;;;;;26423409;22;20242;-73
2022/05/21 22:05:48;;;;;;;0.20;0.00;;;21.30;99.90;;;;;;26433612;22;20291;-73
2022/05/21 22:15:53;;;;;;;0.20;0.10;;;21.30;99.90;;;;;;26402379;22;20158;-73
2022/05/21 22:25:57;;;;;;;0.20;0.00;;;21.10;99.90;;;;;;26433446;22;20193;-73
2022/05/21 22:36:03;;;;;;;0.20;0.10;;;20.80;99.90;;;;;;26432731;22;20170;-70
2022/05/21 22:46:09;;;;;;;0.20;0.00;;;21.10;99.90;;;;;;26432201;22;21009;-71
2022/05/21 22:56:15;;;;;;;0.20;0.10;;;20.90;99.90;;;;;;26406901;22;20231;-73
2022/05/21 23:06:19;;;;;;;0.20;0.00;;;20.60;99.90;;;;;;26433599;22;20183;-72
2022/05/21 23:26:46;;;;;;;0.20;0.00;;;20.20;99.90;;;;;;26432361;22;20193;-73
2022/05/21 23:36:51;;;;;;;4.43;1.73;;;19.90;99.90;;;;;;26431204;22;20173;-73
2022/05/21 23:46:56;;;;;;;0.20;0.10;;;20.00;99.90;;;;;;26432721;22;20164;-71
2022/05/21 23:57:02;;;;;;;0.20;0.10;;;20.00;99.90;;;;;;26403441;22;20182;-73
